Time;durP1;ratioP1;P1;durP2;ratioP2;P2;SDS_P1;SDS_P2;PMS_P1;PMS_P2;Temp;Humidity;BMP_temperature;BMP_pressure;BME280_temperature;BME280_humidity;BME280_pressure;Samples;Min_cycle;Max_cycle;Signal;HPM_P1;HPM_P2
2022/01/27 00:02:19;;;;;;;50.33;23.50;;;0.10;99.90;;;;;;5027692;28;20037;-78
2022/01/27 00:04:23;;;;;;;50.72;24.48;;;0.10;99.90;;;;;;5023201;28;20056;-77
2022/01/27 00:06:49;;;;;;;47.20;24.33;;;0.10;99.90;;;;;;5031563;28;20037;-77
2022/01/27 00:11:44;;;;;;;45.35;24.40;;;0.10;99.90;;;;;;5026407;28;20029;-77
2022/01/27 00:14:11;;;;;;;47.03;24.13;;;0.20;99.90;;;;;;5026310;28;20037;-77
2022/01/27 00:16:41;;;;;;;39.40;21.55;;;-0.10;99.90;;;;;;5026709;28;20043;-77
2022/01/27 00:19:09;;;;;;;44.33;23.40;;;-0.20;99.90;;;;;;5028120;28;20037;-77
2022/01/27 00:21:35;;;;;;;42.72;21.85;;;-0.40;99.90;;;;;;5026530;28;20040;-77
2022/01/27 00:24:01;;;;;;;44.30;22.83;;;-0.20;99.90;;;;;;5026349;28;20034;-77
2022/01/27 00:26:27;;;;;;;37.65;20.58;;;-0.10;99.90;;;;;;5035118;28;20041;-77
2022/01/27 00:28:52;;;;;;;39.00;20.50;;;0.00;99.90;;;;;;5034241;28;20029;-77
2022/01/27 00:31:20;;;;;;;41.33;20.23;;;-0.20;99.90;;;;;;5033644;28;20422;-77
2022/01/27 00:33:47;;;;;;;40.53;20.50;;;-0.20;99.90;;;;;;5027821;28;20599;-77
2022/01/27 00:36:13;;;;;;;40.83;20.52;;;-0.40;99.90;;;;;;5027903;28;20105;-77
2022/01/27 00:38:39;;;;;;;39.72;20.88;;;-0.30;99.90;;;;;;5028758;28;20108;-77
2022/01/27 00:41:05;;;;;;;39.28;20.25;;;-0.10;99.90;;;;;;5028582;28;20067;-78
2022/01/27 00:43:31;;;;;;;40.28;19.10;;;0.00;99.90;;;;;;5028309;28;20462;-77
2022/01/27 00:45:57;;;;;;;38.63;20.23;;;-0.10;99.90;;;;;;5032589;28;20092;-77
2022/01/27 00:48:23;;;;;;;38.65;18.95;;;-0.10;99.90;;;;;;5026967;28;20522;-78
2022/01/27 00:50:54;;;;;;;36.28;19.20;;;0.00;99.90;;;;;;5032371;28;20032;-77
2022/01/27 00:53:41;;;;;;;32.53;18.13;;;0.00;99.90;;;;;;5028635;28;20013;-77
2022/01/27 00:56:22;;;;;;;33.40;18.15;;;0.00;99.90;;;;;;5040573;28;20052;-78
2022/01/27 01:01:16;;;;;;;36.17;17.92;;;-0.60;99.90;;;;;;5030271;28;20120;-76
2022/01/27 01:03:46;;;;;;;35.25;18.30;;;-0.50;99.90;;;;;;5027655;28;20029;-77
2022/01/27 01:15:57;;;;;;;29.90;15.88;;;-0.10;99.90;;;;;;5029572;28;20053;-77
2022/01/27 01:18:43;;;;;;;32.63;17.50;;;-0.30;99.90;;;;;;5027009;28;21188;-78
2022/01/27 01:29:29;;;;;;;34.42;16.83;;;-0.50;99.90;;;;;;5019052;28;20456;-77
2022/01/27 01:34:28;;;;;;;28.25;15.68;;;-0.50;99.90;;;;;;5028861;28;20029;-77
2022/01/27 01:39:23;;;;;;;26.10;14.75;;;-0.30;99.90;;;;;;5028077;28;20403;-77
2022/01/27 01:41:49;;;;;;;36.47;18.55;;;-0.60;99.90;;;;;;5028220;28;20017;-77
2022/01/27 01:44:15;;;;;;;31.25;15.27;;;-0.90;99.90;;;;;;5027714;28;20036;-78
2022/01/27 01:46:40;;;;;;;28.15;15.60;;;-0.70;99.90;;;;;;5032020;28;27827;-77
2022/01/27 01:49:06;;;;;;;29.52;15.65;;;-0.50;99.90;;;;;;5031083;28;20037;-77
2022/01/27 01:51:35;;;;;;;28.58;14.80;;;-0.30;99.90;;;;;;5029181;28;20025;-77
2022/01/27 01:54:01;;;;;;;30.13;15.60;;;-0.30;99.90;;;;;;5027748;28;20033;-76
2022/01/27 01:56:27;;;;;;;27.23;13.80;;;-0.40;99.90;;;;;;5027434;28;20105;-76
2022/01/27 01:58:53;;;;;;;28.13;14.23;;;-0.40;99.90;;;;;;5027971;28;20104;-77
2022/01/27 02:01:19;;;;;;;28.10;14.07;;;-0.30;99.90;;;;;;5028312;28;20543;-77
2022/01/27 02:03:45;;;;;;;27.05;14.13;;;-0.20;99.90;;;;;;5026572;28;20030;-77
2022/01/27 02:06:21;;;;;;;26.38;13.50;;;-0.30;99.90;;;;;;5026270;28;20514;-76
2022/01/27 02:09:19;;;;;;;24.17;13.07;;;-0.20;99.90;;;;;;5026264;28;20045;-77
2022/01/27 02:19:53;;;;;;;24.88;12.75;;;-0.40;99.90;;;;;;5031736;28;20040;-76
2022/01/27 02:22:19;;;;;;;23.60;12.52;;;-0.60;99.90;;;;;;5029340;28;20072;-77
2022/01/27 02:24:45;;;;;;;20.25;11.80;;;-0.60;99.90;;;;;;5030815;28;20029;-76
2022/01/27 02:27:11;;;;;;;23.88;13.05;;;-0.50;99.90;;;;;;5031114;28;20025;-76
2022/01/27 02:29:38;;;;;;;24.08;11.82;;;-0.60;99.90;;;;;;5033164;28;20552;-76
2022/01/27 02:32:04;;;;;;;22.40;11.90;;;-0.50;99.90;;;;;;5031711;28;20017;-76
2022/01/27 02:34:30;;;;;;;24.38;12.25;;;-0.70;99.90;;;;;;5031216;28;20087;-76
2022/01/27 02:36:55;;;;;;;26.50;13.45;;;-0.90;99.90;;;;;;5032115;28;20018;-76
2022/01/27 02:39:22;;;;;;;22.98;12.70;;;-0.90;99.90;;;;;;5031115;28;20576;-76
2022/01/27 02:41:54;;;;;;;21.75;11.48;;;-0.80;99.90;;;;;;5030258;28;20067;-76
2022/01/27 02:44:38;;;;;;;21.48;11.57;;;-0.40;99.90;;;;;;5036766;28;20062;-75
2022/01/27 02:47:04;;;;;;;22.65;12.18;;;-0.50;99.90;;;;;;5021088;28;20045;-76
2022/01/27 02:49:30;;;;;;;19.23;11.60;;;-0.50;99.90;;;;;;5031068;28;20032;-76
2022/01/27 02:51:56;;;;;;;21.08;11.07;;;-0.40;99.90;;;;;;5030820;28;20525;-76
2022/01/27 02:54:22;;;;;;;21.15;11.57;;;-0.50;99.90;;;;;;5030468;28;20033;-76
2022/01/27 02:56:48;;;;;;;20.25;10.80;;;-0.60;99.90;;;;;;5030660;28;20120;-76
2022/01/27 02:59:15;;;;;;;22.70;11.57;;;-0.50;99.90;;;;;;5030455;28;20529;-75
2022/01/27 03:01:45;;;;;;;20.88;11.70;;;-0.50;99.90;;;;;;5030445;28;20021;-76
2022/01/27 03:04:11;;;;;;;19.52;10.60;;;-0.40;99.90;;;;;;5031789;28;20030;-75
2022/01/27 03:06:36;;;;;;;19.75;11.15;;;-0.60;99.90;;;;;;5029841;28;20021;-76
2022/01/27 03:09:02;;;;;;;20.90;11.32;;;-0.40;99.90;;;;;;5030112;28;20498;-76
2022/01/27 03:11:37;;;;;;;19.95;10.98;;;-0.50;99.90;;;;;;5030006;28;20021;-76
2022/01/27 03:14:03;;;;;;;20.25;11.40;;;-0.60;99.90;;;;;;5030186;28;20030;-75
2022/01/27 03:16:29;;;;;;;20.52;10.10;;;-0.60;99.90;;;;;;5030510;28;20022;-75
2022/01/27 03:18:55;;;;;;;21.05;11.13;;;-0.80;99.90;;;;;;5031342;28;20026;-75
2022/01/27 03:21:21;;;;;;;18.50;10.98;;;-0.90;99.90;;;;;;5028321;28;20151;-75
2022/01/27 03:23:47;;;;;;;20.65;10.90;;;-0.70;99.90;;;;;;5035209;28;20128;-75
2022/01/27 03:26:13;;;;;;;21.55;11.93;;;-0.70;99.90;;;;;;5030025;28;20029;-75
2022/01/27 03:28:39;;;;;;;20.30;10.98;;;-0.70;99.90;;;;;;5029931;28;20029;-74
2022/01/27 03:31:05;;;;;;;20.15;10.65;;;-0.80;99.90;;;;;;5031416;28;20509;-75
2022/01/27 03:33:30;;;;;;;23.83;11.73;;;-0.80;99.90;;;;;;5028862;28;20108;-74
2022/01/27 03:35:56;;;;;;;21.40;12.00;;;-0.80;99.90;;;;;;5029918;28;20021;-74
2022/01/27 03:38:22;;;;;;;21.60;10.98;;;-0.80;99.90;;;;;;5030051;28;20617;-75
2022/01/27 03:40:48;;;;;;;23.38;11.80;;;-0.80;99.90;;;;;;5029256;28;20100;-75
2022/01/27 03:43:14;;;;;;;22.55;10.82;;;-0.80;99.90;;;;;;5036183;28;20497;-75
2022/01/27 03:45:40;;;;;;;24.90;11.95;;;-0.90;99.90;;;;;;5030387;28;20125;-75
2022/01/27 03:48:06;;;;;;;22.40;12.23;;;-0.90;99.90;;;;;;5032662;28;20033;-74
2022/01/27 03:50:32;;;;;;;23.08;11.73;;;-0.90;99.90;;;;;;5028442;28;20554;-74
2022/01/27 03:52:58;;;;;;;22.02;12.70;;;-0.80;99.90;;;;;;5028612;28;20060;-74
2022/01/27 03:55:24;;;;;;;23.35;12.98;;;-0.80;99.90;;;;;;5029809;28;20115;-74
2022/01/27 03:57:50;;;;;;;23.50;13.13;;;-0.70;99.90;;;;;;5030465;28;20055;-74
2022/01/27 04:00:16;;;;;;;22.42;11.88;;;-0.70;99.90;;;;;;5027746;28;20491;-75
2022/01/27 04:02:54;;;;;;;22.63;12.48;;;-0.80;99.90;;;;;;5035894;28;20514;-75
2022/01/27 04:05:20;;;;;;;24.55;12.80;;;-0.80;99.90;;;;;;5029628;28;20091;-75
2022/01/27 04:07:45;;;;;;;21.67;11.15;;;-1.00;99.90;;;;;;5032158;28;20033;-74
2022/01/27 04:10:11;;;;;;;22.10;11.48;;;-1.00;99.90;;;;;;5030757;28;20398;-75
2022/01/27 04:12:37;;;;;;;21.98;11.70;;;-1.00;99.90;;;;;;5029029;28;20422;-74
2022/01/27 04:15:04;;;;;;;23.08;11.40;;;-0.90;99.90;;;;;;5028701;28;20026;-74
2022/01/27 04:17:30;;;;;;;18.60;11.35;;;-0.80;99.90;;;;;;5027732;28;20486;-74
2022/01/27 04:19:55;;;;;;;20.73;11.65;;;-0.90;99.90;;;;;;5029046;28;20063;-75
2022/01/27 04:22:21;;;;;;;24.27;11.43;;;-1.10;99.90;;;;;;5034442;28;20490;-75
2022/01/27 04:24:47;;;;;;;19.75;11.93;;;-1.10;99.90;;;;;;5028070;28;20021;-74
2022/01/27 04:27:19;;;;;;;23.02;12.13;;;-1.10;99.90;;;;;;5032098;28;20033;-74
2022/01/27 04:29:45;;;;;;;22.98;12.23;;;-1.10;99.90;;;;;;5028479;28;20022;-75
2022/01/27 04:32:12;;;;;;;21.33;10.80;;;-1.00;99.90;;;;;;5028668;28;20033;-74
2022/01/27 04:34:41;;;;;;;21.15;11.23;;;-1.00;99.90;;;;;;5027540;28;20052;-75
2022/01/27 04:37:09;;;;;;;23.05;12.45;;;-1.00;99.90;;;;;;5028995;28;20029;-75
2022/01/27 04:39:56;;;;;;;22.95;12.00;;;-1.00;99.90;;;;;;5028393;28;20066;-74
2022/01/27 04:42:35;;;;;;;20.23;11.55;;;-1.00;99.90;;;;;;5031459;28;20045;-75
2022/01/27 04:45:04;;;;;;;23.37;11.03;;;-1.00;99.90;;;;;;5032873;28;20482;-75
2022/01/27 04:47:37;;;;;;;17.17;10.20;;;-0.90;99.90;;;;;;5028362;28;20371;-75
2022/01/27 04:50:04;;;;;;;18.95;11.02;;;-0.80;99.90;;;;;;5026989;28;20449;-75
2022/01/27 04:52:32;;;;;;;19.30;10.55;;;-0.90;99.90;;;;;;5028513;28;20544;-75
2022/01/27 04:55:05;;;;;;;18.17;9.68;;;-1.00;99.90;;;;;;5029742;28;20096;-75
2022/01/27 04:57:31;;;;;;;19.17;10.40;;;-1.10;99.90;;;;;;5028991;28;20033;-74
2022/01/27 04:59:57;;;;;;;18.45;9.13;;;-1.20;99.90;;;;;;5028476;28;20053;-75
2022/01/27 05:02:36;;;;;;;22.77;11.02;;;-1.20;99.90;;;;;;5027662;28;20070;-74
2022/01/27 05:05:03;;;;;;;21.15;9.75;;;-1.20;99.90;;;;;;5027025;28;20033;-75
2022/01/27 05:07:28;;;;;;;20.38;9.95;;;-1.10;99.90;;;;;;5028610;28;20039;-75
2022/01/27 05:09:59;;;;;;;18.58;10.35;;;-1.10;99.90;;;;;;5029461;28;20464;-75
2022/01/27 05:12:37;;;;;;;20.05;10.32;;;-1.10;99.90;;;;;;5027747;28;20048;-74
2022/01/27 05:15:03;;;;;;;19.27;9.25;;;-1.10;99.90;;;;;;5028350;28;20181;-75
2022/01/27 05:17:29;;;;;;;15.63;9.35;;;-1.30;99.90;;;;;;5026782;28;20017;-74
2022/01/27 05:19:54;;;;;;;18.00;9.63;;;-1.10;99.90;;;;;;5034579;28;20034;-74
2022/01/27 05:22:20;;;;;;;19.38;10.68;;;-1.20;99.90;;;;;;5032298;28;20028;-74
2022/01/27 05:24:46;;;;;;;18.50;9.98;;;-1.20;99.90;;;;;;5028432;28;20026;-74
2022/01/27 05:27:11;;;;;;;17.23;9.48;;;-1.10;99.90;;;;;;5029854;28;20498;-74
2022/01/27 05:29:37;;;;;;;14.85;9.10;;;-1.20;99.90;;;;;;5027518;28;20518;-75
2022/01/27 05:32:03;;;;;;;17.92;9.70;;;-1.30;99.90;;;;;;5028210;28;20052;-74
2022/01/27 05:34:29;;;;;;;18.08;9.55;;;-1.30;99.90;;;;;;5026565;28;20090;-74
2022/01/27 05:36:54;;;;;;;19.77;10.32;;;-1.30;99.90;;;;;;5028730;28;20022;-74
2022/01/27 05:39:20;;;;;;;18.73;10.65;;;-1.30;99.90;;;;;;5027809;28;20119;-75
2022/01/27 05:41:46;;;;;;;17.83;9.63;;;-1.20;99.90;;;;;;5026112;28;20108;-74
2022/01/27 05:44:11;;;;;;;16.50;10.68;;;-1.20;99.90;;;;;;5028840;28;20064;-75
2022/01/27 05:46:37;;;;;;;16.50;9.25;;;-1.40;99.90;;;;;;5031901;28;20517;-75
2022/01/27 05:49:03;;;;;;;19.13;10.25;;;-1.30;99.90;;;;;;5033590;28;20529;-75
2022/01/27 05:51:29;;;;;;;14.85;8.95;;;-1.40;99.90;;;;;;5032970;28;20029;-75
2022/01/27 05:53:55;;;;;;;18.92;10.05;;;-1.50;99.90;;;;;;5030160;28;20034;-74
2022/01/27 05:56:21;;;;;;;16.02;9.07;;;-1.40;99.90;;;;;;5030377;28;20108;-74
2022/01/27 05:58:46;;;;;;;16.80;9.30;;;-1.40;99.90;;;;;;5038882;28;20072;-74
2022/01/27 06:01:13;;;;;;;16.88;9.30;;;-1.30;99.90;;;;;;5037066;28;20025;-74
2022/01/27 06:03:39;;;;;;;18.83;10.07;;;-1.70;99.90;;;;;;5029070;28;20132;-75
2022/01/27 06:06:04;;;;;;;16.33;9.32;;;-1.90;99.90;;;;;;5026861;28;20490;-74
2022/01/27 06:08:30;;;;;;;17.73;10.77;;;-1.70;99.90;;;;;;5031077;28;20102;-74
2022/01/27 06:10:57;;;;;;;18.48;10.20;;;-1.70;99.90;;;;;;5031343;28;20372;-75
2022/01/27 06:13:23;;;;;;;21.20;9.80;;;-1.80;99.90;;;;;;5032483;28;20025;-74
2022/01/27 06:15:48;;;;;;;19.73;10.63;;;-1.80;99.90;;;;;;5032222;28;20026;-75
2022/01/27 06:18:14;;;;;;;16.35;10.00;;;-1.60;99.90;;;;;;5031299;28;20097;-74
2022/01/27 06:20:43;;;;;;;16.25;10.00;;;-1.70;99.90;;;;;;5036843;28;20376;-75
2022/01/27 06:23:08;;;;;;;20.75;10.70;;;-1.70;99.90;;;;;;5030841;28;20030;-74
2022/01/27 06:25:34;;;;;;;20.30;10.00;;;-1.70;99.90;;;;;;5033415;28;20032;-75
2022/01/27 06:28:00;;;;;;;18.67;9.68;;;-1.70;99.90;;;;;;5032321;28;20030;-75
2022/01/27 06:30:26;;;;;;;15.77;9.50;;;-1.70;99.90;;;;;;5030687;28;20041;-76
2022/01/27 06:32:52;;;;;;;20.77;11.13;;;-1.70;99.90;;;;;;5030725;28;20029;-75
2022/01/27 06:35:18;;;;;;;19.38;11.05;;;-1.90;99.90;;;;;;5029626;28;20388;-76
2022/01/27 06:37:45;;;;;;;21.25;10.82;;;-1.80;99.90;;;;;;5029343;28;20081;-75
2022/01/27 06:40:14;;;;;;;21.00;11.20;;;-1.80;99.90;;;;;;5035932;28;20490;-75
2022/01/27 06:42:40;;;;;;;23.45;11.73;;;-1.70;99.90;;;;;;5030398;28;20035;-75
2022/01/27 06:45:07;;;;;;;20.67;10.73;;;-1.70;99.90;;;;;;5032118;28;20036;-76
2022/01/27 06:47:33;;;;;;;17.70;10.05;;;-1.70;99.90;;;;;;5029464;28;20029;-76
2022/01/27 06:49:59;;;;;;;18.60;9.95;;;-1.70;99.90;;;;;;5030450;28;20034;-76
2022/01/27 06:52:27;;;;;;;17.65;10.45;;;-1.80;99.90;;;;;;5039288;28;20506;-76
2022/01/27 06:54:56;;;;;;;20.00;11.02;;;-1.80;99.90;;;;;;5032087;28;20024;-75
2022/01/27 06:57:23;;;;;;;18.73;9.90;;;-1.70;99.90;;;;;;5029626;28;20559;-76
2022/01/27 06:59:49;;;;;;;19.00;10.68;;;-1.70;99.90;;;;;;5035651;28;20308;-76
2022/01/27 07:02:14;;;;;;;20.45;10.30;;;-1.70;99.90;;;;;;5034028;28;20021;-76
2022/01/27 07:04:40;;;;;;;22.65;11.55;;;-1.70;99.90;;;;;;5024842;28;20060;-76
2022/01/27 07:07:06;;;;;;;19.55;10.57;;;-1.70;99.90;;;;;;5031968;28;20675;-76
2022/01/27 07:09:32;;;;;;;19.95;10.70;;;-1.70;99.90;;;;;;5030663;28;20123;-76
2022/01/27 07:11:58;;;;;;;19.17;10.90;;;-1.80;99.90;;;;;;5030283;28;20506;-76
2022/01/27 07:14:24;;;;;;;19.83;10.98;;;-1.80;99.90;;;;;;5029869;28;20047;-76
2022/01/27 07:16:50;;;;;;;24.05;11.55;;;-1.80;99.90;;;;;;5036936;28;20465;-76
2022/01/27 07:19:16;;;;;;;21.25;10.95;;;-1.80;99.90;;;;;;5035815;28;20078;-77
2022/01/27 07:21:42;;;;;;;19.00;10.95;;;-1.80;99.90;;;;;;5030791;28;20091;-76
2022/01/27 07:24:08;;;;;;;22.75;12.10;;;-1.80;99.90;;;;;;5031002;28;20041;-76
2022/01/27 07:26:34;;;;;;;18.20;10.70;;;-1.80;99.90;;;;;;5028398;28;20029;-76
2022/01/27 07:29:00;;;;;;;21.25;11.35;;;-1.70;99.90;;;;;;5029823;28;20510;-76
2022/01/27 07:31:26;;;;;;;20.33;11.23;;;-1.70;99.90;;;;;;5037773;28;20423;-76
2022/01/27 07:33:52;;;;;;;19.75;10.82;;;-1.70;99.90;;;;;;5029947;28;20142;-76
2022/01/27 07:36:19;;;;;;;25.30;11.77;;;-1.70;99.90;;;;;;5033711;28;20128;-76
2022/01/27 07:38:46;;;;;;;18.52;11.40;;;-1.70;99.90;;;;;;5032962;28;20029;-76
2022/01/27 07:41:17;;;;;;;23.55;12.07;;;-1.90;99.90;;;;;;5028178;28;20059;-76
2022/01/27 07:43:43;;;;;;;22.30;11.85;;;-1.90;99.90;;;;;;5029575;28;20414;-76
2022/01/27 07:46:13;;;;;;;23.02;13.00;;;-1.80;99.90;;;;;;5031220;28;20045;-76
2022/01/27 07:48:40;;;;;;;26.35;14.10;;;-1.70;99.90;;;;;;5029583;28;20150;-76
2022/01/27 07:51:07;;;;;;;25.23;12.55;;;-1.70;99.90;;;;;;5029527;28;20474;-76
2022/01/27 07:53:34;;;;;;;25.40;13.75;;;-2.00;99.90;;;;;;5034386;28;20061;-75
2022/01/27 07:56:02;;;;;;;24.15;12.63;;;-2.00;99.90;;;;;;5032530;28;20136;-75
2022/01/27 07:58:31;;;;;;;24.30;12.88;;;-2.00;99.90;;;;;;5028911;28;20110;-75
2022/01/27 08:00:58;;;;;;;26.48;13.98;;;-2.00;99.90;;;;;;5030896;28;20479;-75
2022/01/27 08:03:24;;;;;;;26.25;12.95;;;-1.90;99.90;;;;;;5028305;28;20025;-75
2022/01/27 08:05:51;;;;;;;23.70;12.07;;;-1.70;99.90;;;;;;5027080;28;20029;-75
2022/01/27 08:08:16;;;;;;;24.85;12.45;;;-1.50;99.90;;;;;;5025392;28;20033;-75
2022/01/27 08:10:44;;;;;;;23.75;13.85;;;-1.20;99.90;;;;;;5028473;28;20159;-75
2022/01/27 08:13:10;;;;;;;24.50;13.00;;;-0.20;99.90;;;;;;5029574;28;20152;-75
2022/01/27 08:15:36;;;;;;;27.48;13.75;;;-0.30;99.90;;;;;;5027893;28;20433;-74
2022/01/27 08:18:02;;;;;;;29.90;15.20;;;-0.40;99.90;;;;;;5026658;28;20033;-75
2022/01/27 08:20:28;;;;;;;28.40;13.80;;;-0.40;99.90;;;;;;5026411;28;20030;-75
2022/01/27 08:22:55;;;;;;;30.98;15.63;;;0.00;99.90;;;;;;5026211;28;20026;-76
2022/01/27 08:25:22;;;;;;;31.05;17.38;;;0.60;99.90;;;;;;5035860;28;20020;-75
2022/01/27 08:27:52;;;;;;;31.80;16.35;;;0.30;99.90;;;;;;5030307;28;20066;-75
2022/01/27 08:30:20;;;;;;;32.75;15.93;;;0.50;99.90;;;;;;5030009;28;20060;-75
2022/01/27 08:35:13;;;;;;;31.45;17.15;;;0.70;99.90;;;;;;5027036;28;20037;-74
2022/01/27 08:37:39;;;;;;;38.80;17.83;;;0.90;99.90;;;;;;5027553;28;20365;-74
2022/01/27 08:40:05;;;;;;;34.78;18.05;;;1.30;99.90;;;;;;5029042;28;20018;-74
2022/01/27 08:42:31;;;;;;;32.80;15.90;;;1.10;99.90;;;;;;5027780;28;20060;-74
2022/01/27 08:44:57;;;;;;;36.00;18.05;;;0.70;99.90;;;;;;5026323;28;20496;-75
2022/01/27 08:47:23;;;;;;;31.98;16.45;;;0.60;99.90;;;;;;5025762;28;20502;-75
2022/01/27 08:49:48;;;;;;;33.58;17.70;;;0.60;99.90;;;;;;5027652;28;20037;-75
2022/01/27 08:52:14;;;;;;;35.33;17.50;;;1.20;99.90;;;;;;5029119;28;20100;-75
2022/01/27 08:54:40;;;;;;;30.90;17.08;;;2.40;99.90;;;;;;5025564;28;20079;-75
2022/01/27 08:57:06;;;;;;;34.65;17.10;;;2.80;99.90;;;;;;5026491;28;20083;-75
2022/01/27 08:59:32;;;;;;;33.25;17.00;;;4.00;99.90;;;;;;5027151;28;20505;-75
2022/01/27 09:01:57;;;;;;;29.33;15.07;;;3.40;99.90;;;;;;5027058;28;20028;-75
2022/01/27 09:04:23;;;;;;;28.90;14.23;;;3.30;99.90;;;;;;5027450;28;20494;-75
2022/01/27 09:06:49;;;;;;;28.52;15.02;;;3.90;99.90;;;;;;5028237;28;20060;-76
2022/01/27 09:09:14;;;;;;;26.83;13.95;;;4.20;99.90;;;;;;5027258;28;20487;-75
2022/01/27 09:11:43;;;;;;;27.50;14.25;;;3.90;99.90;;;;;;5025481;28;20391;-75
2022/01/27 09:14:09;;;;;;;25.85;14.80;;;3.60;99.90;;;;;;5027427;28;20079;-75
2022/01/27 09:16:35;;;;;;;25.70;14.18;;;3.90;99.90;;;;;;5027065;28;20034;-76
2022/01/27 09:19:02;;;;;;;26.70;14.27;;;3.90;99.90;;;;;;5026905;28;20022;-76
2022/01/27 09:21:39;;;;;;;27.80;14.93;;;2.60;99.90;;;;;;5031186;28;20306;-75
2022/01/27 09:24:06;;;;;;;28.83;16.13;;;3.60;99.90;;;;;;5032387;28;20017;-75
2022/01/27 09:26:49;;;;;;;31.10;16.92;;;5.50;99.90;;;;;;5023548;28;20057;-76
2022/01/27 09:29:17;;;;;;;30.38;17.10;;;4.70;99.90;;;;;;5026659;28;20029;-76
2022/01/27 09:31:43;;;;;;;37.95;20.17;;;5.90;99.90;;;;;;5031997;28;20036;-75
2022/01/27 09:34:08;;;;;;;39.80;20.25;;;6.20;99.90;;;;;;5029646;28;20026;-75
2022/01/27 09:36:34;;;;;;;40.15;21.42;;;5.90;99.90;;;;;;5026264;28;20076;-75
2022/01/27 09:38:59;;;;;;;37.03;20.58;;;6.30;99.90;;;;;;5024906;28;20032;-76
2022/01/27 09:41:27;;;;;;;37.50;20.85;;;5.40;99.90;;;;;;5025095;28;20108;-76
2022/01/27 09:43:54;;;;;;;38.25;20.95;;;3.70;99.90;;;;;;5026106;28;20053;-75
2022/01/27 09:46:25;;;;;;;35.15;20.30;;;2.70;99.90;;;;;;5027484;28;20175;-76
2022/01/27 09:48:52;;;;;;;37.00;21.33;;;2.50;99.90;;;;;;5028903;28;20371;-75
2022/01/27 09:51:38;;;;;;;44.63;21.88;;;2.30;99.90;;;;;;5025584;28;20454;-76
2022/01/27 09:54:04;;;;;;;45.08;20.27;;;2.00;99.90;;;;;;5030108;28;20034;-76
2022/01/27 09:56:30;;;;;;;43.50;23.23;;;1.80;99.90;;;;;;5024217;28;20084;-76
2022/01/27 09:58:56;;;;;;;43.38;21.95;;;1.70;99.90;;;;;;5025330;28;20028;-76
2022/01/27 10:01:22;;;;;;;47.13;22.08;;;1.50;99.90;;;;;;5028368;28;20097;-76
2022/01/27 10:03:58;;;;;;;42.65;21.50;;;1.40;99.90;;;;;;5026700;28;20112;-77
2022/01/27 10:06:29;;;;;;;42.58;21.35;;;1.40;99.90;;;;;;5024384;28;20041;-77
2022/01/27 10:09:30;;;;;;;40.77;19.83;;;1.60;99.90;;;;;;5026669;28;20040;-77
2022/01/27 10:12:01;;;;;;;36.05;18.77;;;1.90;99.90;;;;;;5022436;28;20308;-77
2022/01/27 10:14:38;;;;;;;;;;;1.80;99.90;;;;;;5028254;28;20038;-77
2022/01/27 10:17:09;;;;;;;38.60;18.50;;;1.60;99.90;;;;;;5020678;28;19964;-76
2022/01/27 10:19:37;;;;;;;34.55;17.75;;;2.00;99.90;;;;;;5025603;28;20099;-77
2022/01/27 10:22:10;;;;;;;38.92;17.42;;;2.10;99.90;;;;;;5028406;28;20022;-77
2022/01/27 10:24:37;;;;;;;33.58;16.58;;;2.20;99.90;;;;;;5029190;28;20030;-77
2022/01/27 10:27:22;;;;;;;33.70;15.93;;;2.40;99.90;;;;;;5029469;28;20052;-77
2022/01/27 10:32:42;;;;;;;30.38;15.65;;;3.00;99.90;;;;;;5035293;28;20116;-77
2022/01/27 10:35:10;;;;;;;29.65;14.93;;;3.40;99.90;;;;;;5033312;28;20042;-77
2022/01/27 10:38:00;;;;;;;26.50;15.32;;;3.20;99.90;;;;;;5029326;28;20028;-77
2022/01/27 10:40:51;;;;;;;31.15;15.40;;;3.20;99.90;;;;;;5030570;28;20102;-77
2022/01/27 10:43:20;;;;;;;30.80;14.40;;;3.20;99.90;;;;;;5029598;28;20117;-77
2022/01/27 10:46:09;;;;;;;27.95;14.05;;;3.40;99.90;;;;;;5029040;28;20061;-77
2022/01/27 10:48:50;;;;;;;28.05;14.07;;;3.40;99.90;;;;;;5030352;28;20040;-77
2022/01/27 10:51:31;;;;;;;27.25;14.25;;;3.40;99.90;;;;;;5024425;28;20033;-77
2022/01/27 10:54:09;;;;;;;26.50;15.32;;;3.40;99.90;;;;;;5033597;28;20041;-76
2022/01/27 10:56:38;;;;;;;28.13;15.18;;;3.20;99.90;;;;;;5028656;28;20020;-77
2022/01/27 10:59:09;;;;;;;27.88;14.88;;;3.40;99.90;;;;;;5029610;28;20038;-77
2022/01/27 11:01:51;;;;;;;31.02;15.60;;;3.40;99.90;;;;;;5029963;28;20095;-77
2022/01/27 11:04:19;;;;;;;28.77;13.57;;;3.60;99.90;;;;;;5023196;28;20131;-76
2022/01/27 11:06:56;;;;;;;27.83;14.38;;;3.50;99.90;;;;;;5028706;28;20041;-77
2022/01/27 11:09:24;;;;;;;26.73;14.65;;;3.50;99.90;;;;;;5029170;28;20266;-77
2022/01/27 11:11:52;;;;;;;24.25;13.68;;;3.60;99.90;;;;;;5029219;28;20057;-77
2022/01/27 11:14:19;;;;;;;26.77;15.63;;;3.60;99.90;;;;;;5031203;28;20018;-77
2022/01/27 11:16:47;;;;;;;31.75;15.20;;;3.60;99.90;;;;;;5027787;28;20041;-77
2022/01/27 11:24:54;;;;;;;27.63;14.77;;;3.80;99.90;;;;;;5031306;28;20026;-77
2022/01/27 11:27:26;;;;;;;30.05;15.52;;;3.80;99.90;;;;;;5030673;28;20030;-77
2022/01/27 11:30:18;;;;;;;27.60;14.40;;;3.90;99.90;;;;;;5028455;28;20029;-77
2022/01/27 11:33:08;;;;;;;27.98;16.33;;;4.10;99.90;;;;;;5032208;28;20029;-77
2022/01/27 11:35:34;;;;;;;26.83;16.43;;;4.10;99.90;;;;;;5026669;28;20029;-77
2022/01/27 11:38:08;;;;;;;36.65;16.85;;;4.30;99.90;;;;;;5027574;28;20112;-77
2022/01/27 11:40:41;;;;;;;34.20;18.60;;;4.60;99.90;;;;;;5029037;28;20022;-77
2022/01/27 11:43:11;;;;;;;38.45;18.73;;;4.80;99.90;;;;;;5028429;28;20017;-77
2022/01/27 11:45:47;;;;;;;33.50;19.05;;;4.60;99.90;;;;;;5026341;28;20041;-77
2022/01/27 11:48:15;;;;;;;34.35;19.60;;;4.70;99.90;;;;;;5028397;28;20033;-77
2022/01/27 11:53:36;;;;;;;41.25;22.23;;;5.70;99.90;;;;;;5028615;28;20033;-78
2022/01/27 11:56:08;;;;;;;40.67;22.45;;;5.70;99.90;;;;;;5026299;28;20056;-78
2022/01/27 11:58:49;;;;;;;39.08;22.35;;;5.60;99.90;;;;;;5028360;28;20075;-77
2022/01/27 12:01:17;;;;;;;38.33;21.98;;;5.50;99.90;;;;;;5031505;28;20045;-77
2022/01/27 12:04:06;;;;;;;34.28;20.17;;;5.40;99.90;;;;;;5025884;28;20038;-78
2022/01/27 12:06:35;;;;;;;35.38;20.25;;;5.20;99.90;;;;;;5029300;28;20525;-78
2022/01/27 12:09:19;;;;;;;39.17;19.70;;;5.20;99.90;;;;;;5026658;28;20028;-78
2022/01/27 12:11:51;;;;;;;40.30;21.92;;;5.70;99.90;;;;;;5029497;28;20018;-77
2022/01/27 12:14:24;;;;;;;35.50;19.65;;;6.40;99.90;;;;;;5027588;28;20032;-78
2022/01/27 12:17:23;;;;;;;38.08;21.23;;;6.00;99.90;;;;;;5027839;28;20030;-77
2022/01/27 12:20:10;;;;;;;34.22;18.45;;;5.70;99.90;;;;;;5015094;28;20048;-77
2022/01/27 12:22:44;;;;;;;32.85;17.75;;;5.60;99.90;;;;;;5017026;28;20072;-76
2022/01/27 12:25:10;;;;;;;30.17;16.67;;;5.50;99.90;;;;;;5019302;28;20038;-76
2022/01/27 12:27:37;;;;;;;29.90;17.42;;;6.00;99.90;;;;;;5008445;28;20040;-77
2022/01/27 12:30:06;;;;;;;27.77;15.77;;;6.30;99.90;;;;;;5017403;28;20064;-77
2022/01/27 12:32:33;;;;;;;27.63;15.38;;;6.00;99.90;;;;;;4999830;28;20051;-77
2022/01/27 12:35:12;;;;;;;30.50;16.33;;;5.80;99.90;;;;;;5012723;28;20029;-77
2022/01/27 12:37:43;;;;;;;33.70;18.05;;;6.00;99.90;;;;;;5014680;28;20021;-77
2022/01/27 12:40:23;;;;;;;30.10;16.23;;;6.60;99.90;;;;;;5021147;28;20618;-77
2022/01/27 12:43:01;;;;;;;27.70;15.95;;;6.50;99.90;;;;;;5023635;28;20049;-77
2022/01/27 12:45:31;;;;;;;26.40;15.40;;;6.30;99.90;;;;;;5021179;28;20060;-77
2022/01/27 12:48:01;;;;;;;27.17;14.80;;;6.10;99.90;;;;;;5020589;28;20112;-77
2022/01/27 12:50:28;;;;;;;27.55;15.80;;;6.30;99.90;;;;;;5018791;28;20097;-77
2022/01/27 12:53:08;;;;;;;25.55;15.40;;;6.70;99.90;;;;;;5011742;28;20025;-77
2022/01/27 12:55:40;;;;;;;28.23;15.52;;;6.60;99.90;;;;;;5014534;28;20034;-77
2022/01/27 12:58:11;;;;;;;25.98;14.38;;;6.80;99.90;;;;;;5030875;28;20028;-77
2022/01/27 13:00:42;;;;;;;28.00;15.10;;;6.80;99.90;;;;;;5028276;28;20112;-77
2022/01/27 13:03:08;;;;;;;23.17;13.65;;;6.50;99.90;;;;;;5026627;28;20014;-77
2022/01/27 13:05:35;;;;;;;23.70;14.40;;;6.30;99.90;;;;;;5028144;28;20033;-77
2022/01/27 13:08:12;;;;;;;23.35;13.02;;;6.40;99.90;;;;;;5032169;28;20021;-77
2022/01/27 13:10:44;;;;;;;23.95;14.60;;;6.50;99.90;;;;;;5028324;28;20037;-77
2022/01/27 13:13:16;;;;;;;22.20;13.25;;;6.60;99.90;;;;;;5029094;28;20029;-77
2022/01/27 13:15:41;;;;;;;;;;;6.60;99.90;;;;;;5028433;28;20032;-77
2022/01/27 13:18:21;;;;;;;23.80;12.93;;;6.70;99.90;;;;;;5027184;28;20328;-77
2022/01/27 13:20:52;;;;;;;21.23;13.05;;;6.70;99.90;;;;;;5019948;28;20025;-77
2022/01/27 13:25:54;;;;;;;20.50;12.63;;;6.70;99.90;;;;;;5028475;28;20087;-77
2022/01/27 13:28:25;;;;;;;20.00;13.43;;;6.60;99.90;;;;;;5033247;28;20029;-77
2022/01/27 13:30:54;;;;;;;18.90;12.07;;;6.70;99.90;;;;;;5024604;28;20052;-77
2022/01/27 13:33:22;;;;;;;23.92;12.07;;;6.80;99.90;;;;;;5028221;28;20079;-77
2022/01/27 13:35:49;;;;;;;22.38;13.23;;;7.00;99.90;;;;;;5027549;28;20210;-77